createdAt,value
2023-05-30T00:02:41.328Z,45.73
2023-05-30T00:05:59.147Z,45.89
2023-05-30T00:09:56.612Z,46.08
2023-05-30T00:13:27.804Z,46.06
2023-05-30T00:20:17.184Z,46.09
2023-05-30T00:23:58.980Z,46.10
2023-05-30T00:27:12.618Z,46.25
2023-05-30T00:30:57.343Z,46.38
2023-05-30T00:34:37.666Z,46.53
2023-05-30T00:37:51.393Z,46.70
2023-05-30T00:41:00.731Z,46.83
2023-05-30T00:43:57.746Z,47.00
2023-05-30T00:57:15.926Z,47.75
2023-05-30T01:00:43.640Z,47.90
2023-05-30T01:03:49.608Z,48.30
2023-05-30T01:11:52.049Z,48.70
2023-05-30T01:15:46.030Z,48.94
2023-05-30T01:20:50.433Z,49.12
2023-05-30T01:27:30.789Z,49.24
2023-05-30T01:30:48.583Z,49.40
2023-05-30T01:34:30.298Z,49.49
2023-05-30T02:10:51.654Z,47.93
2023-05-30T02:14:11.852Z,48.29
2023-05-30T02:24:40.721Z,50.38
2023-05-30T02:27:57.163Z,51.07
2023-05-30T02:31:52.795Z,51.58
2023-05-30T02:35:50.514Z,51.99
2023-05-30T02:39:09.993Z,52.54
2023-05-30T02:42:50.728Z,52.90
2023-05-30T03:00:34.780Z,51.40
2023-05-30T03:04:08.552Z,51.28
2023-05-30T03:07:35.213Z,52.10
2023-05-30T03:14:34.727Z,53.09
2023-05-30T03:18:02.803Z,53.53
2023-05-30T03:21:13.943Z,53.89
2023-05-30T03:24:38.887Z,54.12
2023-05-30T03:27:25.905Z,54.46
2023-05-30T03:31:43.166Z,54.60
2023-05-30T03:35:10.619Z,54.99
2023-05-30T03:38:16.256Z,55.16
2023-05-30T03:45:05.348Z,55.09
2023-05-30T03:53:35.854Z,55.55
2023-05-30T03:56:54.062Z,55.67
2023-05-30T04:15:59.670Z,55.42
2023-05-30T04:32:54.107Z,54.27
2023-05-30T04:36:54.012Z,53.58
2023-05-30T04:40:22.902Z,52.81
2023-05-30T04:43:26.904Z,52.56
2023-05-30T04:47:10.441Z,51.34
2023-05-30T04:55:20.358Z,49.80
2023-05-30T05:22:43.940Z,40.23
2023-05-30T05:37:26.566Z,37.58
2023-05-30T06:16:45.424Z,33.85
2023-05-30T06:19:59.233Z,33.53
2023-05-30T06:24:26.030Z,32.65
2023-05-30T06:27:47.484Z,32.82
2023-05-30T06:31:26.894Z,32.92
2023-05-30T06:34:23.718Z,32.43
2023-05-30T06:37:30.051Z,32.20
2023-05-30T06:41:17.033Z,31.27
2023-05-30T06:44:09.204Z,31.52
2023-05-30T06:47:45.555Z,31.67
2023-05-30T06:51:20.275Z,31.21
2023-05-30T07:02:49.133Z,31.22
2023-05-30T07:05:55.371Z,31.29
2023-05-30T07:09:13.721Z,30.70
2023-05-30T07:12:09.839Z,29.81
2023-05-30T07:15:31.771Z,29.67
2023-05-30T07:23:10.231Z,29.26
2023-05-30T07:29:29.198Z,30.20
2023-05-30T07:35:47.389Z,29.83
2023-05-30T07:42:49.640Z,28.77
2023-05-30T07:46:15.093Z,28.42
2023-05-30T07:49:55.029Z,28.45
2023-05-30T07:52:56.521Z,28.38
2023-05-30T07:56:20.241Z,28.53
2023-05-30T07:59:05.587Z,28.98
2023-05-30T08:02:27.905Z,28.85
2023-05-30T08:05:54.603Z,28.79
2023-05-30T08:09:09.808Z,28.35
2023-05-30T08:16:49.721Z,27.98
2023-05-30T08:19:48.259Z,28.22
2023-05-30T08:25:53.561Z,26.76
2023-05-30T08:29:12.190Z,26.32
2023-05-30T08:32:24.940Z,26.23
2023-05-30T08:39:59.767Z,25.37
2023-05-30T08:43:28.831Z,25.73
2023-05-30T08:47:27.460Z,25.81
2023-05-30T08:50:45.646Z,25.08
2023-05-30T08:54:27.827Z,24.97
2023-05-30T08:57:54.717Z,24.99
2023-05-30T09:05:03.733Z,24.87
2023-05-30T09:08:37.776Z,24.67
2023-05-30T09:11:59.792Z,24.57
2023-05-30T09:15:40.949Z,25.54
2023-05-30T09:22:14.045Z,25.55
2023-05-30T09:25:18.567Z,25.06
2023-05-30T09:28:38.325Z,25.99
2023-05-30T09:31:43.296Z,26.18
2023-05-30T09:35:10.822Z,26.17
2023-05-30T09:41:53.404Z,24.83
2023-05-30T09:45:25.353Z,24.40
2023-05-30T09:51:44.123Z,23.17
2023-05-30T09:58:09.374Z,23.37
2023-05-30T10:01:25.674Z,23.72
2023-05-30T10:05:08.491Z,23.65
2023-05-30T10:07:45.925Z,23.40
2023-05-30T10:10:54.970Z,23.35
2023-05-30T10:14:15.114Z,23.58
2023-05-30T10:17:16.830Z,23.82
2023-05-30T10:20:33.072Z,23.96
2023-05-30T10:26:09.308Z,24.00
2023-05-30T10:29:04.663Z,24.19
2023-05-30T10:31:46.741Z,24.55
2023-05-30T10:37:56.854Z,24.61
2023-05-30T10:41:40.600Z,24.32
2023-05-30T10:45:08.793Z,24.49
2023-05-30T11:27:25.665Z,28.15
2023-05-30T11:30:58.160Z,28.90
2023-05-30T11:35:07.248Z,28.51
2023-05-30T11:42:21.979Z,28.21
2023-05-30T11:45:38.137Z,28.50
2023-05-30T11:49:01.603Z,27.74
2023-05-30T11:57:00.388Z,27.58
2023-05-30T12:08:24.647Z,27.06
2023-05-30T12:49:02.369Z,25.45
2023-05-30T12:52:30.942Z,25.60
2023-05-30T12:55:32.168Z,25.71
2023-05-30T13:01:32.526Z,25.58
2023-05-30T13:04:50.657Z,25.02
2023-05-30T13:08:02.751Z,24.82
2023-05-30T13:11:42.997Z,24.84
2023-05-30T13:14:52.351Z,24.90
2023-05-30T13:26:27.616Z,24.77
2023-05-30T13:32:57.889Z,25.09
2023-05-30T13:36:17.405Z,25.47
2023-05-30T13:39:29.000Z,25.46
2023-05-30T13:43:42.513Z,25.36
2023-05-30T13:47:29.558Z,25.26
2023-05-30T14:17:42.108Z,20.97
2023-05-30T14:21:05.472Z,19.60
2023-05-30T14:28:52.065Z,20.85
2023-05-30T14:31:35.514Z,21.14
2023-05-30T14:45:27.434Z,21.53
2023-05-30T14:49:10.180Z,21.72
2023-05-30T14:52:12.282Z,21.84
2023-05-30T14:56:03.356Z,21.91
2023-05-30T15:03:30.741Z,21.97
2023-05-30T15:07:10.289Z,22.10
2023-05-30T15:10:17.356Z,21.75
2023-05-30T15:13:19.965Z,21.70
2023-05-30T15:16:48.294Z,21.71
2023-05-30T16:00:54.931Z,22.77
2023-05-30T16:07:01.130Z,23.03
2023-05-30T16:09:59.748Z,22.87
2023-05-30T16:13:22.107Z,22.96
2023-05-30T16:16:22.991Z,23.02
2023-05-30T16:19:40.110Z,23.30
2023-05-30T16:22:43.390Z,23.53
2023-05-30T16:26:02.156Z,24.06
2023-05-30T16:29:26.488Z,24.29
2023-05-30T16:32:35.666Z,24.40
2023-05-30T16:39:41.468Z,24.67
2023-05-30T16:43:18.188Z,25.00
2023-05-30T16:49:07.072Z,24.91
2023-05-30T16:52:01.314Z,25.03
2023-05-30T16:58:48.319Z,25.42
2023-05-30T17:01:41.334Z,25.57
2023-05-30T17:05:07.885Z,25.80
2023-05-30T17:08:37.129Z,25.94
2023-05-30T17:11:21.555Z,26.22
2023-05-30T17:14:49.674Z,26.44
2023-05-30T17:18:04.348Z,26.58
2023-05-30T17:21:13.885Z,26.58
2023-05-30T17:24:10.877Z,26.76
2023-05-30T17:27:09.922Z,26.97
2023-05-30T17:30:18.388Z,27.22
2023-05-30T17:54:19.910Z,28.83
2023-05-30T17:57:21.100Z,28.95
2023-05-30T18:09:21.081Z,29.58
2023-05-30T18:12:17.432Z,29.69
2023-05-30T18:14:53.098Z,30.01
2023-05-30T18:17:42.211Z,30.29
2023-05-30T18:21:04.169Z,30.62
2023-05-30T18:24:04.718Z,30.84
2023-05-30T18:27:02.278Z,31.01
2023-05-30T18:29:59.314Z,31.32
2023-05-30T18:33:16.834Z,31.62
2023-05-30T18:40:31.124Z,32.15
2023-05-30T18:43:14.617Z,32.37
2023-05-30T18:50:09.120Z,32.82
2023-05-30T18:53:41.089Z,33.05
2023-05-30T18:59:29.707Z,33.47
2023-05-30T19:02:22.406Z,33.65
2023-05-30T19:11:26.493Z,34.65
2023-05-30T19:14:27.249Z,34.92
2023-05-30T19:17:54.047Z,35.10
2023-05-30T19:21:15.302Z,35.52
2023-05-30T19:24:03.246Z,35.75
2023-05-30T19:26:40.423Z,35.95
2023-05-30T19:30:33.569Z,36.16
2023-05-30T19:34:02.151Z,36.38
2023-05-30T19:36:55.336Z,36.73
2023-05-30T19:40:19.368Z,37.00
2023-05-30T19:43:00.142Z,37.46
2023-05-30T19:46:03.749Z,37.68
2023-05-30T19:49:09.493Z,37.69
2023-05-30T19:56:25.511Z,38.25
2023-05-30T20:03:30.734Z,38.77
2023-05-30T20:07:01.598Z,38.97
2023-05-30T20:09:49.871Z,39.01
2023-05-30T20:12:43.433Z,39.14
2023-05-30T20:15:33.942Z,39.37
2023-05-30T20:18:25.019Z,39.78
2023-05-30T20:22:07.645Z,40.21
2023-05-30T20:25:01.214Z,40.58
2023-05-30T20:28:05.670Z,41.11
2023-05-30T20:30:38.239Z,41.44
2023-05-30T20:33:34.703Z,41.77
2023-05-30T20:36:16.560Z,42.02
2023-05-30T20:39:04.904Z,42.25
2023-05-30T20:41:55.808Z,41.99
2023-05-30T20:48:19.892Z,41.87
2023-05-30T20:51:27.576Z,41.79
2023-05-30T20:55:08.469Z,42.07
2023-05-30T20:57:45.023Z,42.62
2023-05-30T21:00:30.930Z,42.83
2023-05-30T21:03:35.915Z,43.49
2023-05-30T22:16:43.351Z,50.11
2023-05-30T22:19:23.044Z,50.37
2023-05-30T22:22:11.254Z,50.62
2023-05-30T22:25:36.901Z,50.94
2023-05-30T22:28:07.320Z,51.40
2023-05-30T22:30:55.524Z,51.52
2023-05-30T22:33:46.175Z,51.72
2023-05-30T22:36:42.534Z,51.98
2023-05-30T22:39:36.958Z,52.19
2023-05-30T22:42:27.836Z,52.40
2023-05-30T22:48:43.117Z,52.84
2023-05-30T22:51:24.799Z,52.79
2023-05-30T22:54:04.752Z,52.82
2023-05-30T22:57:03.710Z,52.74
2023-05-30T22:59:52.600Z,53.11
2023-05-30T23:03:08.178Z,53.32
2023-05-30T23:05:51.414Z,53.63
2023-05-30T23:08:25.323Z,53.71
2023-05-30T23:11:05.535Z,53.81
2023-05-30T23:13:48.501Z,54.07
2023-05-30T23:16:34.801Z,54.26
2023-05-30T23:23:18.115Z,54.76
2023-05-30T23:26:24.017Z,55.04
2023-05-30T23:31:56.904Z,55.30
2023-05-30T23:34:28.156Z,55.34
2023-05-30T23:37:16.185Z,55.39
2023-05-30T23:40:06.982Z,55.46
2023-05-30T23:42:56.316Z,55.59
2023-05-30T23:46:08.775Z,55.77
2023-05-30T23:48:43.812Z,55.93
2023-05-30T23:51:46.778Z,55.98
2023-05-30T23:54:17.631Z,56.02
2023-05-30T23:56:48.150Z,55.76
2023-05-30T23:59:27.481Z,55.48
